Terminal Aerodrome Forecast
Issued by NWS Cleveland, OH

Home | Current Version | Previous Version | Text Only | Print | Product List | Glossary Off
Versions: 1 2 3 4 5 6 7 8 9 10 11 12 13 14 15 16 17 18 19 20

000
FTUS41 KCLE 200500
TAFTOL
TAF
KTOL 200528Z 2006/2106 20008KT P6SM VCSH BKN100
     FM201600 23012G20KT 6SM -SHRA BKN025 OVC040
     FM202200 27011KT 4SM -RA BR BKN010 OVC025=

USA.gov is the U.S. government's official web portal to all federal, state and local government web resources and services.